sensor_id;sensor_type;location;lat;lon;timestamp;P1;durP1;ratioP1;P2;durP2;ratioP2
71639;SDS011;60912;48.968;10.124;2022-10-16T00:02:16;6.50;;;2.80;;
71639;SDS011;60912;48.968;10.124;2022-10-16T00:04:42;6.13;;;2.90;;
71639;SDS011;60912;48.968;10.124;2022-10-16T00:07:07;5.70;;;2.67;;
71639;SDS011;60912;48.968;10.124;2022-10-16T00:09:32;5.50;;;2.80;;
71639;SDS011;60912;48.968;10.124;2022-10-16T00:11:58;7.60;;;2.80;;
71639;SDS011;60912;48.968;10.124;2022-10-16T00:14:23;8.67;;;2.47;;
71639;SDS011;60912;48.968;10.124;2022-10-16T00:16:48;6.40;;;2.13;;
71639;SDS011;60912;48.968;10.124;2022-10-16T00:19:14;6.57;;;2.30;;
71639;SDS011;60912;48.968;10.124;2022-10-16T00:21:39;9.75;;;2.28;;
71639;SDS011;60912;48.968;10.124;2022-10-16T00:24:06;8.07;;;2.30;;
71639;SDS011;60912;48.968;10.124;2022-10-16T00:26:33;7.78;;;2.72;;
71639;SDS011;60912;48.968;10.124;2022-10-16T00:29:00;8.43;;;2.13;;
71639;SDS011;60912;48.968;10.124;2022-10-16T00:31:26;7.37;;;2.53;;
71639;SDS011;60912;48.968;10.124;2022-10-16T00:33:52;7.55;;;2.20;;
71639;SDS011;60912;48.968;10.124;2022-10-16T00:36:19;4.90;;;2.30;;
71639;SDS011;60912;48.968;10.124;2022-10-16T00:38:47;4.83;;;2.20;;
71639;SDS011;60912;48.968;10.124;2022-10-16T00:41:18;5.75;;;1.55;;
71639;SDS011;60912;48.968;10.124;2022-10-16T00:46:11;9.13;;;2.30;;
71639;SDS011;60912;48.968;10.124;2022-10-16T00:48:41;6.75;;;2.10;;
71639;SDS011;60912;48.968;10.124;2022-10-16T00:51:10;5.18;;;2.35;;
71639;SDS011;60912;48.968;10.124;2022-10-16T00:53:36;13.13;;;2.87;;
71639;SDS011;60912;48.968;10.124;2022-10-16T00:56:02;6.90;;;2.43;;
71639;SDS011;60912;48.968;10.124;2022-10-16T00:58:28;7.60;;;2.30;;
71639;SDS011;60912;48.968;10.124;2022-10-16T01:00:53;6.10;;;2.00;;
71639;SDS011;60912;48.968;10.124;2022-10-16T01:03:26;6.65;;;1.92;;
71639;SDS011;60912;48.968;10.124;2022-10-16T01:13:55;11.73;;;2.00;;
71639;SDS011;60912;48.968;10.124;2022-10-16T01:16:34;6.75;;;1.63;;
71639;SDS011;60912;48.968;10.124;2022-10-16T01:21:41;6.07;;;1.42;;
71639;SDS011;60912;48.968;10.124;2022-10-16T01:24:27;4.80;;;1.60;;
71639;SDS011;60912;48.968;10.124;2022-10-16T01:27:24;8.40;;;1.60;;
71639;SDS011;60912;48.968;10.124;2022-10-16T01:32:49;8.07;;;1.70;;
71639;SDS011;60912;48.968;10.124;2022-10-16T01:35:34;7.28;;;1.90;;
71639;SDS011;60912;48.968;10.124;2022-10-16T01:41:26;6.23;;;1.60;;
71639;SDS011;60912;48.968;10.124;2022-10-16T01:43:59;8.32;;;1.80;;
71639;SDS011;60912;48.968;10.124;2022-10-16T01:46:29;5.50;;;1.60;;
71639;SDS011;60912;48.968;10.124;2022-10-16T01:48:56;8.82;;;1.50;;
71639;SDS011;60912;48.968;10.124;2022-10-16T01:51:24;5.93;;;1.40;;
71639;SDS011;60912;48.968;10.124;2022-10-16T01:53:53;7.63;;;1.40;;
71639;SDS011;60912;48.968;10.124;2022-10-16T01:56:20;9.45;;;1.88;;
71639;SDS011;60912;48.968;10.124;2022-10-16T01:58:52;6.57;;;1.60;;
71639;SDS011;60912;48.968;10.124;2022-10-16T02:01:21;5.20;;;1.80;;
71639;SDS011;60912;48.968;10.124;2022-10-16T02:03:50;9.35;;;1.63;;
71639;SDS011;60912;48.968;10.124;2022-10-16T02:06:18;7.80;;;1.43;;
71639;SDS011;60912;48.968;10.124;2022-10-16T02:08:45;8.35;;;1.75;;
71639;SDS011;60912;48.968;10.124;2022-10-16T02:11:11;5.50;;;1.50;;
71639;SDS011;60912;48.968;10.124;2022-10-16T02:13:46;5.13;;;1.50;;
71639;SDS011;60912;48.968;10.124;2022-10-16T02:16:16;5.80;;;1.60;;
71639;SDS011;60912;48.968;10.124;2022-10-16T02:18:41;7.40;;;1.60;;
71639;SDS011;60912;48.968;10.124;2022-10-16T02:21:22;7.20;;;1.50;;
71639;SDS011;60912;48.968;10.124;2022-10-16T02:23:54;5.72;;;1.38;;
71639;SDS011;60912;48.968;10.124;2022-10-16T02:26:57;5.47;;;1.27;;
71639;SDS011;60912;48.968;10.124;2022-10-16T02:29:25;6.15;;;1.48;;
71639;SDS011;60912;48.968;10.124;2022-10-16T02:31:56;4.33;;;1.57;;
71639;SDS011;60912;48.968;10.124;2022-10-16T02:34:25;8.30;;;1.50;;
71639;SDS011;60912;48.968;10.124;2022-10-16T02:36:53;6.53;;;1.40;;
71639;SDS011;60912;48.968;10.124;2022-10-16T02:39:21;9.75;;;1.38;;
71639;SDS011;60912;48.968;10.124;2022-10-16T02:41:47;5.00;;;1.10;;
71639;SDS011;60912;48.968;10.124;2022-10-16T02:44:12;3.58;;;1.55;;
71639;SDS011;60912;48.968;10.124;2022-10-16T02:46:38;6.47;;;1.30;;
71639;SDS011;60912;48.968;10.124;2022-10-16T02:49:03;3.47;;;1.20;;
71639;SDS011;60912;48.968;10.124;2022-10-16T02:51:29;6.23;;;1.33;;
71639;SDS011;60912;48.968;10.124;2022-10-16T02:53:54;6.63;;;1.57;;
71639;SDS011;60912;48.968;10.124;2022-10-16T02:56:19;4.83;;;1.30;;
71639;SDS011;60912;48.968;10.124;2022-10-16T02:58:45;5.53;;;1.30;;
71639;SDS011;60912;48.968;10.124;2022-10-16T03:01:10;4.87;;;1.30;;
71639;SDS011;60912;48.968;10.124;2022-10-16T03:03:37;5.15;;;1.20;;
71639;SDS011;60912;48.968;10.124;2022-10-16T03:06:03;7.07;;;1.57;;
71639;SDS011;60912;48.968;10.124;2022-10-16T03:08:29;7.65;;;1.58;;
71639;SDS011;60912;48.968;10.124;2022-10-16T03:10:54;6.17;;;1.30;;
71639;SDS011;60912;48.968;10.124;2022-10-16T03:13:19;7.47;;;1.40;;
71639;SDS011;60912;48.968;10.124;2022-10-16T03:15:45;7.78;;;1.63;;
71639;SDS011;60912;48.968;10.124;2022-10-16T03:18:11;5.50;;;1.90;;
71639;SDS011;60912;48.968;10.124;2022-10-16T03:20:36;5.13;;;1.40;;
71639;SDS011;60912;48.968;10.124;2022-10-16T03:23:01;5.60;;;1.50;;
71639;SDS011;60912;48.968;10.124;2022-10-16T03:25:27;6.65;;;1.38;;
71639;SDS011;60912;48.968;10.124;2022-10-16T03:27:53;5.80;;;1.80;;
71639;SDS011;60912;48.968;10.124;2022-10-16T03:30:18;5.57;;;1.55;;
71639;SDS011;60912;48.968;10.124;2022-10-16T03:32:44;3.03;;;1.50;;
71639;SDS011;60912;48.968;10.124;2022-10-16T03:35:10;7.15;;;1.30;;
71639;SDS011;60912;48.968;10.124;2022-10-16T03:37:37;5.60;;;1.30;;
71639;SDS011;60912;48.968;10.124;2022-10-16T03:40:03;4.85;;;1.50;;
71639;SDS011;60912;48.968;10.124;2022-10-16T03:42:29;6.10;;;1.23;;
71639;SDS011;60912;48.968;10.124;2022-10-16T03:44:54;8.13;;;1.50;;
71639;SDS011;60912;48.968;10.124;2022-10-16T03:47:19;7.63;;;1.70;;
71639;SDS011;60912;48.968;10.124;2022-10-16T03:49:47;9.70;;;1.60;;
71639;SDS011;60912;48.968;10.124;2022-10-16T03:52:13;7.93;;;1.97;;
71639;SDS011;60912;48.968;10.124;2022-10-16T03:54:38;3.63;;;1.20;;
71639;SDS011;60912;48.968;10.124;2022-10-16T03:57:03;3.20;;;1.60;;
71639;SDS011;60912;48.968;10.124;2022-10-16T03:59:29;6.20;;;1.60;;
71639;SDS011;60912;48.968;10.124;2022-10-16T04:01:54;9.30;;;1.47;;
71639;SDS011;60912;48.968;10.124;2022-10-16T04:04:19;5.17;;;1.90;;
71639;SDS011;60912;48.968;10.124;2022-10-16T04:06:45;6.30;;;1.60;;
71639;SDS011;60912;48.968;10.124;2022-10-16T04:09:10;4.93;;;1.60;;
71639;SDS011;60912;48.968;10.124;2022-10-16T04:11:35;7.83;;;2.03;;
71639;SDS011;60912;48.968;10.124;2022-10-16T04:14:01;4.70;;;1.30;;
71639;SDS011;60912;48.968;10.124;2022-10-16T04:16:26;4.37;;;1.30;;
71639;SDS011;60912;48.968;10.124;2022-10-16T04:18:51;4.30;;;1.33;;
71639;SDS011;60912;48.968;10.124;2022-10-16T04:21:17;7.67;;;1.50;;
71639;SDS011;60912;48.968;10.124;2022-10-16T04:23:42;4.37;;;1.37;;
71639;SDS011;60912;48.968;10.124;2022-10-16T04:26:08;3.10;;;1.30;;
71639;SDS011;60912;48.968;10.124;2022-10-16T04:28:35;2.92;;;1.08;;
71639;SDS011;60912;48.968;10.124;2022-10-16T04:31:03;8.77;;;1.40;;
71639;SDS011;60912;48.968;10.124;2022-10-16T04:33:29;7.80;;;1.40;;
71639;SDS011;60912;48.968;10.124;2022-10-16T04:35:57;5.17;;;1.20;;
71639;SDS011;60912;48.968;10.124;2022-10-16T04:38:24;3.67;;;1.20;;
71639;SDS011;60912;48.968;10.124;2022-10-16T04:40:50;7.17;;;1.43;;
71639;SDS011;60912;48.968;10.124;2022-10-16T04:43:15;6.05;;;1.40;;
71639;SDS011;60912;48.968;10.124;2022-10-16T04:45:40;8.43;;;1.40;;
71639;SDS011;60912;48.968;10.124;2022-10-16T04:48:06;3.90;;;1.10;;
71639;SDS011;60912;48.968;10.124;2022-10-16T04:50:31;8.40;;;1.87;;
71639;SDS011;60912;48.968;10.124;2022-10-16T04:52:56;3.97;;;1.50;;
71639;SDS011;60912;48.968;10.124;2022-10-16T04:55:22;3.92;;;1.08;;
71639;SDS011;60912;48.968;10.124;2022-10-16T04:57:47;8.53;;;1.33;;
71639;SDS011;60912;48.968;10.124;2022-10-16T05:00:13;3.87;;;1.00;;
71639;SDS011;60912;48.968;10.124;2022-10-16T05:02:38;6.03;;;1.40;;
71639;SDS011;60912;48.968;10.124;2022-10-16T05:05:03;3.10;;;1.40;;
71639;SDS011;60912;48.968;10.124;2022-10-16T05:07:29;2.70;;;1.27;;
71639;SDS011;60912;48.968;10.124;2022-10-16T05:09:55;5.70;;;1.30;;
71639;SDS011;60912;48.968;10.124;2022-10-16T05:12:20;2.38;;;1.23;;
71639;SDS011;60912;48.968;10.124;2022-10-16T05:14:45;3.70;;;1.30;;
71639;SDS011;60912;48.968;10.124;2022-10-16T05:17:11;4.00;;;1.33;;
71639;SDS011;60912;48.968;10.124;2022-10-16T05:19:36;10.10;;;1.50;;
71639;SDS011;60912;48.968;10.124;2022-10-16T05:22:01;8.80;;;1.63;;
71639;SDS011;60912;48.968;10.124;2022-10-16T05:24:27;5.57;;;1.20;;
71639;SDS011;60912;48.968;10.124;2022-10-16T05:26:52;4.07;;;1.23;;
71639;SDS011;60912;48.968;10.124;2022-10-16T05:29:18;8.33;;;1.60;;
71639;SDS011;60912;48.968;10.124;2022-10-16T05:31:43;4.10;;;1.43;;
71639;SDS011;60912;48.968;10.124;2022-10-16T05:34:09;7.97;;;1.33;;
71639;SDS011;60912;48.968;10.124;2022-10-16T05:36:34;5.97;;;2.00;;
71639;SDS011;60912;48.968;10.124;2022-10-16T05:38:59;6.65;;;1.38;;
71639;SDS011;60912;48.968;10.124;2022-10-16T05:41:25;8.53;;;1.77;;
71639;SDS011;60912;48.968;10.124;2022-10-16T05:43:51;3.63;;;1.13;;
71639;SDS011;60912;48.968;10.124;2022-10-16T05:46:17;5.10;;;1.30;;
71639;SDS011;60912;48.968;10.124;2022-10-16T05:48:42;9.60;;;1.60;;
71639;SDS011;60912;48.968;10.124;2022-10-16T05:51:09;4.13;;;1.40;;
71639;SDS011;60912;48.968;10.124;2022-10-16T05:53:37;9.75;;;1.50;;
71639;SDS011;60912;48.968;10.124;2022-10-16T05:56:03;4.75;;;1.50;;
71639;SDS011;60912;48.968;10.124;2022-10-16T05:58:30;8.40;;;1.88;;
71639;SDS011;60912;48.968;10.124;2022-10-16T06:01:07;4.73;;;1.70;;
71639;SDS011;60912;48.968;10.124;2022-10-16T06:03:35;7.28;;;1.30;;
71639;SDS011;60912;48.968;10.124;2022-10-16T06:08:40;7.10;;;1.60;;
71639;SDS011;60912;48.968;10.124;2022-10-16T06:11:10;9.43;;;1.67;;
71639;SDS011;60912;48.968;10.124;2022-10-16T06:13:37;7.07;;;1.50;;
71639;SDS011;60912;48.968;10.124;2022-10-16T06:16:04;4.70;;;1.40;;
71639;SDS011;60912;48.968;10.124;2022-10-16T06:18:30;5.53;;;1.30;;
71639;SDS011;60912;48.968;10.124;2022-10-16T06:20:56;4.45;;;1.30;;
71639;SDS011;60912;48.968;10.124;2022-10-16T06:23:22;4.25;;;1.50;;
71639;SDS011;60912;48.968;10.124;2022-10-16T06:25:48;8.02;;;1.17;;
71639;SDS011;60912;48.968;10.124;2022-10-16T06:28:14;7.87;;;1.40;;
71639;SDS011;60912;48.968;10.124;2022-10-16T06:30:40;3.97;;;1.20;;
71639;SDS011;60912;48.968;10.124;2022-10-16T06:33:05;7.03;;;1.30;;
71639;SDS011;60912;48.968;10.124;2022-10-16T06:35:31;6.43;;;1.50;;
71639;SDS011;60912;48.968;10.124;2022-10-16T06:37:57;4.13;;;1.60;;
71639;SDS011;60912;48.968;10.124;2022-10-16T06:40:22;4.45;;;1.80;;
71639;SDS011;60912;48.968;10.124;2022-10-16T06:42:48;9.23;;;1.60;;
71639;SDS011;60912;48.968;10.124;2022-10-16T06:45:13;6.90;;;1.37;;
71639;SDS011;60912;48.968;10.124;2022-10-16T06:47:39;5.63;;;1.35;;
71639;SDS011;60912;48.968;10.124;2022-10-16T06:50:04;4.40;;;1.50;;
71639;SDS011;60912;48.968;10.124;2022-10-16T06:52:31;5.28;;;1.50;;
71639;SDS011;60912;48.968;10.124;2022-10-16T06:54:57;11.17;;;2.00;;
71639;SDS011;60912;48.968;10.124;2022-10-16T06:57:22;5.50;;;1.70;;
71639;SDS011;60912;48.968;10.124;2022-10-16T06:59:48;4.23;;;1.50;;
71639;SDS011;60912;48.968;10.124;2022-10-16T07:02:13;9.57;;;1.80;;
71639;SDS011;60912;48.968;10.124;2022-10-16T07:04:38;6.28;;;1.80;;
71639;SDS011;60912;48.968;10.124;2022-10-16T07:07:04;5.60;;;1.60;;
71639;SDS011;60912;48.968;10.124;2022-10-16T07:09:29;4.87;;;1.67;;
71639;SDS011;60912;48.968;10.124;2022-10-16T07:11:54;5.40;;;2.13;;
71639;SDS011;60912;48.968;10.124;2022-10-16T07:14:21;6.07;;;2.30;;
71639;SDS011;60912;48.968;10.124;2022-10-16T07:16:46;6.13;;;2.10;;
71639;SDS011;60912;48.968;10.124;2022-10-16T07:19:12;6.57;;;2.42;;
71639;SDS011;60912;48.968;10.124;2022-10-16T07:21:40;7.97;;;3.30;;
71639;SDS011;60912;48.968;10.124;2022-10-16T07:24:09;9.03;;;3.40;;
71639;SDS011;60912;48.968;10.124;2022-10-16T07:26:39;8.90;;;4.07;;
71639;SDS011;60912;48.968;10.124;2022-10-16T07:29:23;7.57;;;3.60;;
71639;SDS011;60912;48.968;10.124;2022-10-16T07:31:51;7.20;;;3.95;;
71639;SDS011;60912;48.968;10.124;2022-10-16T07:34:17;7.50;;;3.70;;
71639;SDS011;60912;48.968;10.124;2022-10-16T07:36:44;9.75;;;3.40;;
71639;SDS011;60912;48.968;10.124;2022-10-16T07:39:12;12.02;;;3.33;;
71639;SDS011;60912;48.968;10.124;2022-10-16T07:41:37;6.37;;;3.40;;
71639;SDS011;60912;48.968;10.124;2022-10-16T07:44:03;6.30;;;3.03;;
71639;SDS011;60912;48.968;10.124;2022-10-16T07:46:29;11.00;;;3.88;;
71639;SDS011;60912;48.968;10.124;2022-10-16T07:48:54;9.07;;;5.17;;
71639;SDS011;60912;48.968;10.124;2022-10-16T07:51:21;7.57;;;3.40;;
71639;SDS011;60912;48.968;10.124;2022-10-16T07:53:47;6.13;;;3.20;;
71639;SDS011;60912;48.968;10.124;2022-10-16T07:56:13;6.10;;;3.17;;
71639;SDS011;60912;48.968;10.124;2022-10-16T07:58:42;6.93;;;2.80;;
71639;SDS011;60912;48.968;10.124;2022-10-16T08:01:09;6.50;;;3.45;;
71639;SDS011;60912;48.968;10.124;2022-10-16T08:03:36;6.40;;;2.72;;
71639;SDS011;60912;48.968;10.124;2022-10-16T08:06:02;4.60;;;2.40;;
71639;SDS011;60912;48.968;10.124;2022-10-16T08:08:29;6.47;;;2.20;;
71639;SDS011;60912;48.968;10.124;2022-10-16T08:10:54;5.70;;;1.83;;
71639;SDS011;60912;48.968;10.124;2022-10-16T08:13:20;4.53;;;2.10;;
71639;SDS011;60912;48.968;10.124;2022-10-16T08:15:46;8.15;;;2.55;;
71639;SDS011;60912;48.968;10.124;2022-10-16T08:18:13;6.43;;;2.60;;
71639;SDS011;60912;48.968;10.124;2022-10-16T08:20:40;5.45;;;2.67;;
71639;SDS011;60912;48.968;10.124;2022-10-16T08:23:06;5.28;;;2.50;;
71639;SDS011;60912;48.968;10.124;2022-10-16T08:25:33;5.18;;;2.83;;
71639;SDS011;60912;48.968;10.124;2022-10-16T08:28:03;10.33;;;2.60;;
71639;SDS011;60912;48.968;10.124;2022-10-16T08:30:30;5.78;;;2.72;;
71639;SDS011;60912;48.968;10.124;2022-10-16T08:32:56;5.68;;;2.40;;
71639;SDS011;60912;48.968;10.124;2022-10-16T08:35:23;5.97;;;2.22;;
71639;SDS011;60912;48.968;10.124;2022-10-16T08:37:48;4.47;;;2.20;;
71639;SDS011;60912;48.968;10.124;2022-10-16T08:40:24;5.07;;;2.17;;
71639;SDS011;60912;48.968;10.124;2022-10-16T08:45:38;6.50;;;2.05;;
71639;SDS011;60912;48.968;10.124;2022-10-16T08:48:46;5.18;;;2.13;;
71639;SDS011;60912;48.968;10.124;2022-10-16T08:51:20;6.70;;;2.70;;
71639;SDS011;60912;48.968;10.124;2022-10-16T08:53:56;5.93;;;2.60;;
71639;SDS011;60912;48.968;10.124;2022-10-16T08:56:24;6.13;;;2.90;;
71639;SDS011;60912;48.968;10.124;2022-10-16T08:58:52;6.60;;;3.28;;
71639;SDS011;60912;48.968;10.124;2022-10-16T09:01:19;8.80;;;4.13;;
71639;SDS011;60912;48.968;10.124;2022-10-16T09:18:02;5.40;;;1.95;;
71639;SDS011;60912;48.968;10.124;2022-10-16T09:20:43;4.57;;;2.13;;
71639;SDS011;60912;48.968;10.124;2022-10-16T09:23:27;5.80;;;2.30;;
71639;SDS011;60912;48.968;10.124;2022-10-16T09:25:55;5.70;;;2.05;;
71639;SDS011;60912;48.968;10.124;2022-10-16T09:28:23;5.15;;;2.30;;
71639;SDS011;60912;48.968;10.124;2022-10-16T09:30:49;3.83;;;1.80;;
71639;SDS011;60912;48.968;10.124;2022-10-16T09:33:15;6.57;;;1.77;;
71639;SDS011;60912;48.968;10.124;2022-10-16T09:35:52;5.05;;;1.80;;
71639;SDS011;60912;48.968;10.124;2022-10-16T09:38:28;4.63;;;1.90;;
71639;SDS011;60912;48.968;10.124;2022-10-16T09:40:58;4.73;;;1.70;;
71639;SDS011;60912;48.968;10.124;2022-10-16T09:48:43;6.22;;;1.80;;
71639;SDS011;60912;48.968;10.124;2022-10-16T09:51:17;7.22;;;1.60;;
71639;SDS011;60912;48.968;10.124;2022-10-16T09:53:46;4.10;;;1.70;;
71639;SDS011;60912;48.968;10.124;2022-10-16T09:56:20;8.15;;;1.90;;
71639;SDS011;60912;48.968;10.124;2022-10-16T09:58:52;6.45;;;1.80;;
71639;SDS011;60912;48.968;10.124;2022-10-16T10:01:19;6.05;;;1.60;;
71639;SDS011;60912;48.968;10.124;2022-10-16T10:03:47;5.03;;;2.03;;
71639;SDS011;60912;48.968;10.124;2022-10-16T10:06:21;6.20;;;1.60;;
71639;SDS011;60912;48.968;10.124;2022-10-16T10:09:24;8.57;;;1.60;;
71639;SDS011;60912;48.968;10.124;2022-10-16T10:14:27;3.85;;;1.35;;
71639;SDS011;60912;48.968;10.124;2022-10-16T10:19:38;6.10;;;1.53;;
71639;SDS011;60912;48.968;10.124;2022-10-16T10:24:56;4.75;;;1.45;;
71639;SDS011;60912;48.968;10.124;2022-10-16T10:43:54;5.07;;;1.33;;
71639;SDS011;60912;48.968;10.124;2022-10-16T10:54:58;5.20;;;1.50;;
71639;SDS011;60912;48.968;10.124;2022-10-16T10:57:41;4.35;;;1.45;;
71639;SDS011;60912;48.968;10.124;2022-10-16T11:11:10;4.18;;;1.20;;
71639;SDS011;60912;48.968;10.124;2022-10-16T11:16:28;4.30;;;1.67;;
71639;SDS011;60912;48.968;10.124;2022-10-16T11:21:25;4.03;;;1.60;;
71639;SDS011;60912;48.968;10.124;2022-10-16T11:23:59;4.90;;;1.30;;
71639;SDS011;60912;48.968;10.124;2022-10-16T11:26:30;4.77;;;1.50;;
71639;SDS011;60912;48.968;10.124;2022-10-16T11:29:00;6.10;;;1.50;;
71639;SDS011;60912;48.968;10.124;2022-10-16T11:31:36;5.00;;;1.52;;
71639;SDS011;60912;48.968;10.124;2022-10-16T11:34:06;3.40;;;1.33;;
71639;SDS011;60912;48.968;10.124;2022-10-16T11:36:44;7.10;;;1.30;;
71639;SDS011;60912;48.968;10.124;2022-10-16T11:39:20;4.20;;;1.10;;
71639;SDS011;60912;48.968;10.124;2022-10-16T11:41:49;6.30;;;1.50;;
71639;SDS011;60912;48.968;10.124;2022-10-16T11:49:36;6.68;;;1.60;;
71639;SDS011;60912;48.968;10.124;2022-10-16T11:55:14;3.92;;;1.10;;
71639;SDS011;60912;48.968;10.124;2022-10-16T11:57:46;3.47;;;1.10;;
71639;SDS011;60912;48.968;10.124;2022-10-16T12:00:28;3.97;;;1.00;;
71639;SDS011;60912;48.968;10.124;2022-10-16T12:08:22;3.30;;;0.85;;
71639;SDS011;60912;48.968;10.124;2022-10-16T12:10:48;2.72;;;1.00;;
71639;SDS011;60912;48.968;10.124;2022-10-16T12:18:37;2.08;;;0.90;;
71639;SDS011;60912;48.968;10.124;2022-10-16T12:21:04;3.90;;;1.00;;
71639;SDS011;60912;48.968;10.124;2022-10-16T12:23:31;2.65;;;1.10;;
71639;SDS011;60912;48.968;10.124;2022-10-16T12:26:11;4.10;;;1.20;;
71639;SDS011;60912;48.968;10.124;2022-10-16T12:28:36;2.55;;;1.00;;
71639;SDS011;60912;48.968;10.124;2022-10-16T12:31:07;2.97;;;1.10;;
71639;SDS011;60912;48.968;10.124;2022-10-16T12:33:35;2.33;;;1.00;;
71639;SDS011;60912;48.968;10.124;2022-10-16T12:36:03;6.18;;;1.23;;
71639;SDS011;60912;48.968;10.124;2022-10-16T12:38:36;4.00;;;1.20;;
71639;SDS011;60912;48.968;10.124;2022-10-16T12:41:11;3.75;;;1.08;;
71639;SDS011;60912;48.968;10.124;2022-10-16T12:43:46;5.40;;;1.10;;
71639;SDS011;60912;48.968;10.124;2022-10-16T12:48:38;5.40;;;1.10;;
71639;SDS011;60912;48.968;10.124;2022-10-16T12:56:31;3.05;;;1.20;;
71639;SDS011;60912;48.968;10.124;2022-10-16T13:21:45;2.95;;;1.00;;
71639;SDS011;60912;48.968;10.124;2022-10-16T13:24:29;3.95;;;1.00;;
71639;SDS011;60912;48.968;10.124;2022-10-16T13:29:52;4.53;;;1.10;;
71639;SDS011;60912;48.968;10.124;2022-10-16T13:32:20;1.98;;;0.90;;
71639;SDS011;60912;48.968;10.124;2022-10-16T13:34:47;4.25;;;0.95;;
71639;SDS011;60912;48.968;10.124;2022-10-16T13:37:23;2.00;;;1.02;;
71639;SDS011;60912;48.968;10.124;2022-10-16T13:39:49;2.20;;;0.85;;
71639;SDS011;60912;48.968;10.124;2022-10-16T13:42:22;3.10;;;0.83;;
71639;SDS011;60912;48.968;10.124;2022-10-16T13:44:50;4.40;;;0.80;;
71639;SDS011;60912;48.968;10.124;2022-10-16T13:47:18;2.85;;;0.90;;
71639;SDS011;60912;48.968;10.124;2022-10-16T13:50:01;2.30;;;0.85;;
71639;SDS011;60912;48.968;10.124;2022-10-16T13:52:29;4.45;;;1.05;;
71639;SDS011;60912;48.968;10.124;2022-10-16T13:54:54;2.90;;;0.70;;
71639;SDS011;60912;48.968;10.124;2022-10-16T13:57:21;4.83;;;0.80;;
71639;SDS011;60912;48.968;10.124;2022-10-16T13:59:48;5.00;;;0.73;;
71639;SDS011;60912;48.968;10.124;2022-10-16T14:05:00;3.10;;;0.80;;
71639;SDS011;60912;48.968;10.124;2022-10-16T14:07:28;2.45;;;1.00;;
71639;SDS011;60912;48.968;10.124;2022-10-16T14:09:56;2.77;;;1.13;;
71639;SDS011;60912;48.968;10.124;2022-10-16T14:12:26;3.92;;;1.17;;
71639;SDS011;60912;48.968;10.124;2022-10-16T14:14:52;3.75;;;1.10;;
71639;SDS011;60912;48.968;10.124;2022-10-16T14:19:48;2.63;;;0.95;;
71639;SDS011;60912;48.968;10.124;2022-10-16T14:22:23;2.65;;;1.00;;
71639;SDS011;60912;48.968;10.124;2022-10-16T14:24:54;4.07;;;1.10;;
71639;SDS011;60912;48.968;10.124;2022-10-16T14:27:28;3.63;;;1.00;;
71639;SDS011;60912;48.968;10.124;2022-10-16T14:30:16;1.95;;;1.08;;
71639;SDS011;60912;48.968;10.124;2022-10-16T14:32:53;5.35;;;1.17;;
71639;SDS011;60912;48.968;10.124;2022-10-16T14:35:28;5.20;;;1.20;;
71639;SDS011;60912;48.968;10.124;2022-10-16T14:37:56;5.63;;;1.23;;
71639;SDS011;60912;48.968;10.124;2022-10-16T14:40:24;4.15;;;1.00;;
71639;SDS011;60912;48.968;10.124;2022-10-16T14:42:52;3.97;;;1.10;;
71639;SDS011;60912;48.968;10.124;2022-10-16T14:45:19;2.47;;;0.90;;
71639;SDS011;60912;48.968;10.124;2022-10-16T14:47:47;4.10;;;0.85;;
71639;SDS011;60912;48.968;10.124;2022-10-16T14:50:15;2.43;;;0.90;;
71639;SDS011;60912;48.968;10.124;2022-10-16T14:52:41;3.35;;;0.90;;
71639;SDS011;60912;48.968;10.124;2022-10-16T14:55:09;3.87;;;1.03;;
71639;SDS011;60912;48.968;10.124;2022-10-16T14:57:34;3.05;;;1.00;;
71639;SDS011;60912;48.968;10.124;2022-10-16T15:00:02;2.25;;;1.00;;
71639;SDS011;60912;48.968;10.124;2022-10-16T15:02:34;3.88;;;1.10;;
71639;SDS011;60912;48.968;10.124;2022-10-16T15:07:59;5.43;;;1.23;;
71639;SDS011;60912;48.968;10.124;2022-10-16T15:10:25;3.92;;;1.38;;
71639;SDS011;60912;48.968;10.124;2022-10-16T15:12:53;5.00;;;1.30;;
71639;SDS011;60912;48.968;10.124;2022-10-16T15:17:52;3.97;;;1.50;;
71639;SDS011;60912;48.968;10.124;2022-10-16T15:20:20;2.80;;;1.10;;
71639;SDS011;60912;48.968;10.124;2022-10-16T15:22:46;4.03;;;1.27;;
71639;SDS011;60912;48.968;10.124;2022-10-16T15:28:12;6.38;;;1.20;;
71639;SDS011;60912;48.968;10.124;2022-10-16T15:30:39;6.13;;;1.33;;
71639;SDS011;60912;48.968;10.124;2022-10-16T15:33:09;4.43;;;1.30;;
71639;SDS011;60912;48.968;10.124;2022-10-16T15:35:38;4.15;;;1.38;;
71639;SDS011;60912;48.968;10.124;2022-10-16T15:38:04;6.20;;;1.43;;
71639;SDS011;60912;48.968;10.124;2022-10-16T15:40:29;7.60;;;1.65;;
71639;SDS011;60912;48.968;10.124;2022-10-16T15:42:55;7.20;;;1.40;;
71639;SDS011;60912;48.968;10.124;2022-10-16T15:45:21;8.63;;;1.90;;
71639;SDS011;60912;48.968;10.124;2022-10-16T15:47:46;8.27;;;1.60;;
71639;SDS011;60912;48.968;10.124;2022-10-16T15:50:12;4.73;;;1.50;;
71639;SDS011;60912;48.968;10.124;2022-10-16T15:52:39;4.50;;;2.00;;
71639;SDS011;60912;48.968;10.124;2022-10-16T15:55:06;4.47;;;1.65;;
71639;SDS011;60912;48.968;10.124;2022-10-16T15:57:35;7.95;;;1.90;;
71639;SDS011;60912;48.968;10.124;2022-10-16T16:00:04;8.00;;;1.73;;
71639;SDS011;60912;48.968;10.124;2022-10-16T16:02:31;7.60;;;2.10;;
71639;SDS011;60912;48.968;10.124;2022-10-16T16:04:57;11.20;;;2.30;;
71639;SDS011;60912;48.968;10.124;2022-10-16T16:07:22;6.83;;;2.20;;
71639;SDS011;60912;48.968;10.124;2022-10-16T16:09:47;4.82;;;2.00;;
71639;SDS011;60912;48.968;10.124;2022-10-16T16:12:13;8.13;;;1.90;;
71639;SDS011;60912;48.968;10.124;2022-10-16T16:14:39;6.97;;;2.10;;
71639;SDS011;60912;48.968;10.124;2022-10-16T16:17:04;5.05;;;2.70;;
71639;SDS011;60912;48.968;10.124;2022-10-16T16:19:29;7.97;;;3.30;;
71639;SDS011;60912;48.968;10.124;2022-10-16T16:21:55;14.65;;;4.15;;
71639;SDS011;60912;48.968;10.124;2022-10-16T16:24:21;10.33;;;4.10;;
71639;SDS011;60912;48.968;10.124;2022-10-16T16:26:46;8.83;;;3.60;;
71639;SDS011;60912;48.968;10.124;2022-10-16T16:29:13;8.23;;;2.60;;
71639;SDS011;60912;48.968;10.124;2022-10-16T16:31:39;16.35;;;6.05;;
71639;SDS011;60912;48.968;10.124;2022-10-16T16:34:05;6.25;;;2.15;;
71639;SDS011;60912;48.968;10.124;2022-10-16T16:36:31;10.00;;;1.87;;
71639;SDS011;60912;48.968;10.124;2022-10-16T16:38:57;10.20;;;4.00;;
71639;SDS011;60912;48.968;10.124;2022-10-16T16:41:24;9.32;;;3.97;;
71639;SDS011;60912;48.968;10.124;2022-10-16T16:43:52;15.68;;;6.93;;
71639;SDS011;60912;48.968;10.124;2022-10-16T16:46:18;18.13;;;5.30;;
71639;SDS011;60912;48.968;10.124;2022-10-16T16:48:47;12.80;;;3.70;;
71639;SDS011;60912;48.968;10.124;2022-10-16T16:51:15;6.70;;;2.65;;
71639;SDS011;60912;48.968;10.124;2022-10-16T16:53:44;6.70;;;2.50;;
71639;SDS011;60912;48.968;10.124;2022-10-16T16:56:11;9.80;;;2.45;;
71639;SDS011;60912;48.968;10.124;2022-10-16T16:58:37;7.77;;;2.60;;
71639;SDS011;60912;48.968;10.124;2022-10-16T17:01:03;4.57;;;2.20;;
71639;SDS011;60912;48.968;10.124;2022-10-16T17:03:29;5.75;;;2.03;;
71639;SDS011;60912;48.968;10.124;2022-10-16T17:06:00;8.93;;;2.30;;
71639;SDS011;60912;48.968;10.124;2022-10-16T17:08:27;6.20;;;2.15;;
71639;SDS011;60912;48.968;10.124;2022-10-16T17:10:53;6.15;;;2.25;;
71639;SDS011;60912;48.968;10.124;2022-10-16T17:13:29;9.07;;;2.63;;
71639;SDS011;60912;48.968;10.124;2022-10-16T17:15:59;8.52;;;2.30;;
71639;SDS011;60912;48.968;10.124;2022-10-16T17:18:25;7.53;;;2.30;;
71639;SDS011;60912;48.968;10.124;2022-10-16T17:20:50;5.77;;;2.53;;